createdAt,value
2019-06-10T00:01:43.439Z,94.75
2019-06-10T00:04:13.407Z,93.72
2019-06-10T00:06:43.773Z,93.93
2019-06-10T00:09:13.955Z,93.85
2019-06-10T00:11:44.229Z,93.64
2019-06-10T00:14:13.701Z,93.62
2019-06-10T00:16:43.872Z,93.58
2019-06-10T00:19:14.270Z,93.90
2019-06-10T00:21:44.694Z,94.36
2019-06-10T00:24:14.498Z,94.28
2019-06-10T00:26:45.028Z,94.19
2019-06-10T00:29:14.824Z,94.40
2019-06-10T00:31:44.666Z,94.41
2019-06-10T00:34:14.434Z,94.13
2019-06-10T00:36:44.507Z,93.55
2019-06-10T00:39:14.637Z,93.36
2019-06-10T00:41:45.312Z,93.34
2019-06-10T00:44:15.387Z,93.43
2019-06-10T00:46:45.784Z,93.02
2019-06-10T00:49:15.228Z,93.05
2019-06-10T00:51:44.651Z,93.12
2019-06-10T00:54:15.687Z,92.82
2019-06-10T00:56:45.786Z,92.01
2019-06-10T00:59:15.800Z,91.73
2019-06-10T01:01:45.965Z,92.12
2019-06-10T01:04:16.438Z,92.48
2019-06-10T01:06:46.155Z,91.86
2019-06-10T01:09:16.543Z,92.25
2019-06-10T01:11:46.908Z,91.62
2019-06-10T01:14:16.983Z,90.67
2019-06-10T01:16:46.744Z,91.20
2019-06-10T01:19:17.144Z,91.32
2019-06-10T01:21:47.571Z,90.60
2019-06-10T01:24:17.507Z,90.39
2019-06-10T01:26:47.112Z,90.81
2019-06-10T01:29:20.835Z,90.33
2019-06-10T01:31:51.065Z,90.34
2019-06-10T01:34:21.808Z,89.91
2019-06-10T01:36:50.916Z,90.74
2019-06-10T01:39:22.676Z,90.83
2019-06-10T01:41:51.387Z,90.79
2019-06-10T01:44:22.031Z,90.58
2019-06-10T01:46:51.645Z,89.48
2019-06-10T01:49:22.009Z,89.92
2019-06-10T01:51:51.933Z,89.61
2019-06-10T01:54:22.234Z,89.53
2019-06-10T01:56:52.243Z,89.15
2019-06-10T01:59:22.271Z,89.02
2019-06-10T02:01:52.241Z,88.57
2019-06-10T02:04:22.918Z,88.63
2019-06-10T02:06:53.145Z,89.21
2019-06-10T02:09:23.317Z,88.07
2019-06-10T02:11:53.138Z,88.05
2019-06-10T02:14:24.154Z,87.21
2019-06-10T02:16:53.557Z,84.72
2019-06-10T02:19:23.552Z,83.80
2019-06-10T02:21:53.398Z,83.96
2019-06-10T02:24:23.545Z,84.93
2019-06-10T02:26:53.446Z,84.57
2019-06-10T02:29:23.700Z,84.44
2019-06-10T02:31:53.423Z,84.67
2019-06-10T02:34:27.137Z,83.09
2019-06-10T02:36:54.007Z,82.16
2019-06-10T02:39:32.324Z,83.36
2019-06-10T02:41:54.265Z,81.36
2019-06-10T02:44:31.915Z,81.30
2019-06-10T02:46:54.684Z,81.23
2019-06-10T02:49:46.901Z,81.09
2019-06-10T02:51:55.563Z,81.47
2019-06-10T02:54:31.354Z,80.23
2019-06-10T02:56:55.505Z,79.27
2019-06-10T02:59:28.980Z,78.77
2019-06-10T03:01:55.482Z,78.67
2019-06-10T03:04:31.451Z,78.73
2019-06-10T03:06:56.315Z,78.26
2019-06-10T03:09:31.393Z,78.86
2019-06-10T03:11:57.445Z,77.96
2019-06-10T03:14:28.188Z,78.68
2019-06-10T03:16:58.594Z,78.84
2019-06-10T03:19:41.837Z,78.65
2019-06-10T03:21:59.405Z,77.82
2019-06-10T03:24:29.472Z,78.54
2019-06-10T03:26:59.283Z,77.16
2019-06-10T03:29:28.989Z,77.91
2019-06-10T03:31:58.976Z,76.37
2019-06-10T03:34:36.349Z,75.39
2019-06-10T03:37:02.335Z,74.82
2019-06-10T03:39:32.244Z,75.26
2019-06-10T03:42:02.599Z,74.50
2019-06-10T03:44:33.038Z,75.43
2019-06-10T03:47:03.515Z,74.31
2019-06-10T03:49:46.482Z,72.63
2019-06-10T03:52:04.364Z,74.12
2019-06-10T03:54:34.716Z,75.14
2019-06-10T03:57:04.676Z,74.56
2019-06-10T03:59:34.832Z,75.08
2019-06-10T04:02:05.152Z,74.12
2019-06-10T04:04:35.423Z,74.26
2019-06-10T04:07:05.625Z,75.06
2019-06-10T04:09:35.159Z,73.64
2019-06-10T04:12:05.474Z,71.32
2019-06-10T04:14:36.335Z,72.65
2019-06-10T04:17:07.241Z,72.98
2019-06-10T04:19:37.645Z,73.21
2019-06-10T04:22:09.318Z,73.51
2019-06-10T04:24:39.715Z,70.75
2019-06-10T04:27:09.469Z,69.52
2019-06-10T04:29:39.546Z,70.16
2019-06-10T04:32:09.629Z,69.19
2019-06-10T04:34:39.709Z,70.08
2019-06-10T04:37:09.464Z,71.68
2019-06-10T04:39:39.599Z,69.35
2019-06-10T04:42:09.954Z,69.24
2019-06-10T04:44:42.199Z,69.17
2019-06-10T04:47:12.069Z,68.05
2019-06-10T04:49:42.862Z,70.60
2019-06-10T04:52:12.312Z,69.34
2019-06-10T04:54:42.758Z,68.50
2019-06-10T04:57:13.075Z,67.53
2019-06-10T04:59:43.307Z,68.77
2019-06-10T05:02:13.469Z,68.97
2019-06-10T05:04:43.547Z,70.23
2019-06-10T05:07:13.647Z,67.76
2019-06-10T05:09:43.879Z,67.63
2019-06-10T05:12:14.121Z,66.28
2019-06-10T05:14:44.202Z,65.19
2019-06-10T05:17:14.274Z,65.49
2019-06-10T05:19:44.822Z,66.32
2019-06-10T05:33:04.566Z,67.04
2019-06-10T05:35:35.161Z,68.18
2019-06-10T05:38:05.152Z,67.10
2019-06-10T05:40:35.554Z,66.09
2019-06-10T05:43:06.270Z,65.03
2019-06-10T05:45:36.387Z,64.66
2019-06-10T05:48:06.761Z,64.88
2019-06-10T05:50:36.838Z,64.23
2019-06-10T05:53:06.911Z,63.48
2019-06-10T05:55:37.010Z,63.61
2019-06-10T05:58:07.270Z,66.85
2019-06-10T06:00:36.807Z,64.08
2019-06-10T06:03:07.555Z,65.44
2019-06-10T06:05:38.278Z,64.84
2019-06-10T06:08:09.133Z,65.05
2019-06-10T06:10:39.393Z,65.67
2019-06-10T06:13:09.743Z,64.54
2019-06-10T06:15:42.253Z,62.89
2019-06-10T06:18:13.433Z,62.95
2019-06-10T06:20:45.148Z,62.84
2019-06-10T06:23:15.545Z,64.49
2019-06-10T06:25:47.051Z,63.98
2019-06-10T06:28:16.321Z,64.84
2019-06-10T06:30:46.395Z,64.20
2019-06-10T06:33:16.253Z,63.35
2019-06-10T06:35:46.700Z,64.98
2019-06-10T06:38:17.306Z,64.31
2019-06-10T06:40:47.878Z,63.66
2019-06-10T06:43:18.115Z,63.98
2019-06-10T06:45:48.269Z,63.74
2019-06-10T06:48:18.312Z,63.61
2019-06-10T06:51:01.769Z,64.04
2019-06-10T06:53:28.929Z,64.53
2019-06-10T06:55:48.581Z,64.03
2019-06-10T06:58:18.363Z,63.95
2019-06-10T07:01:03.656Z,63.12
2019-06-10T07:03:19.110Z,63.62
2019-06-10T07:05:49.787Z,62.44
2019-06-10T07:08:19.878Z,62.23
2019-06-10T07:10:52.104Z,64.81
2019-06-10T07:13:22.138Z,64.33
2019-06-10T07:15:53.319Z,62.14
2019-06-10T07:18:23.235Z,62.64
2019-06-10T07:20:54.090Z,62.95
2019-06-10T07:23:23.397Z,62.79
2019-06-10T07:25:53.995Z,63.08
2019-06-10T07:28:23.707Z,63.75
2019-06-10T07:30:55.352Z,65.57
2019-06-10T07:33:24.196Z,63.30
2019-06-10T07:35:56.574Z,63.99
2019-06-10T07:38:26.281Z,64.63
2019-06-10T07:40:55.547Z,63.94
2019-06-10T07:43:26.153Z,63.43
2019-06-10T07:45:56.186Z,61.70
2019-06-10T07:48:25.818Z,62.62
2019-06-10T07:50:55.394Z,61.81
2019-06-10T07:53:24.827Z,61.17
2019-06-10T07:55:54.770Z,61.99
2019-06-10T07:58:24.619Z,61.17
2019-06-10T08:00:54.368Z,61.34
2019-06-10T08:03:24.185Z,61.21
2019-06-10T08:05:54.269Z,60.77
2019-06-10T08:08:24.410Z,59.32
2019-06-10T08:10:54.448Z,59.04
2019-06-10T08:13:24.831Z,59.53
2019-06-10T08:15:54.591Z,60.08
2019-06-10T08:18:24.028Z,58.37
2019-06-10T08:20:53.788Z,58.44
2019-06-10T08:23:23.931Z,58.64
2019-06-10T08:25:57.597Z,59.74
2019-06-10T08:28:24.359Z,59.08
2019-06-10T08:30:54.752Z,57.26
2019-06-10T08:33:25.148Z,60.53
2019-06-10T08:36:00.168Z,60.06
2019-06-10T08:38:26.270Z,59.24
2019-06-10T08:40:56.671Z,58.53
2019-06-10T08:43:27.387Z,60.58
2019-06-10T08:45:57.790Z,59.66
2019-06-10T08:48:27.868Z,60.19
2019-06-10T08:50:58.268Z,57.79
2019-06-10T08:53:28.488Z,58.14
2019-06-10T08:55:59.080Z,59.13
2019-06-10T08:58:29.796Z,58.60
2019-06-10T09:01:02.126Z,59.44
2019-06-10T09:03:32.454Z,58.52
2019-06-10T09:06:02.694Z,58.11
2019-06-10T09:08:32.663Z,58.33
2019-06-10T09:11:02.752Z,58.69
2019-06-10T09:13:33.598Z,59.26
2019-06-10T09:16:14.618Z,59.05
2019-06-10T09:18:34.920Z,59.23
2019-06-10T09:21:05.414Z,57.39
2019-06-10T09:23:35.395Z,58.42
2019-06-10T09:26:05.746Z,59.02
2019-06-10T09:28:36.199Z,58.42
2019-06-10T09:31:06.920Z,59.05
2019-06-10T09:33:37.309Z,58.49
2019-06-10T09:36:07.109Z,58.91
2019-06-10T09:38:36.916Z,59.60
2019-06-10T09:41:06.916Z,57.96
2019-06-10T09:43:37.004Z,59.60
2019-06-10T09:46:07.439Z,59.51
2019-06-10T09:48:37.551Z,59.09
2019-06-10T09:51:07.874Z,59.55
2019-06-10T09:53:42.706Z,58.65
2019-06-10T09:56:08.768Z,58.77
2019-06-10T09:58:39.095Z,58.91
2019-06-10T10:01:09.396Z,59.31
2019-06-10T10:03:39.239Z,59.80
2019-06-10T10:06:15.321Z,59.33
2019-06-10T10:08:41.367Z,58.95
2019-06-10T10:11:12.828Z,59.70
2019-06-10T10:13:45.008Z,57.86
2019-06-10T10:16:13.190Z,59.65
2019-06-10T10:18:47.358Z,60.66
2019-06-10T10:21:13.591Z,61.06
2019-06-10T10:23:56.590Z,59.75
2019-06-10T10:26:14.749Z,60.58
2019-06-10T10:28:46.865Z,61.09
2019-06-10T10:31:16.201Z,60.45
2019-06-10T10:33:46.795Z,60.66
2019-06-10T10:36:16.988Z,61.59
2019-06-10T10:38:47.070Z,62.25
2019-06-10T10:41:17.692Z,61.32
2019-06-10T10:43:51.185Z,61.54
2019-06-10T10:46:18.445Z,62.40
2019-06-10T10:48:49.028Z,62.62
2019-06-10T10:51:19.080Z,62.66
2019-06-10T10:54:15.504Z,62.91
2019-06-10T10:56:22.177Z,62.93
2019-06-10T10:58:55.619Z,62.98
2019-06-10T11:01:23.471Z,62.99
2019-06-10T11:03:58.728Z,63.47
2019-06-10T11:06:23.606Z,63.71
2019-06-10T11:08:55.843Z,64.07
2019-06-10T11:11:24.832Z,64.87
2019-06-10T11:13:56.884Z,65.12
2019-06-10T11:16:25.531Z,63.82
2019-06-10T11:18:56.428Z,64.67
2019-06-10T11:21:26.314Z,64.36
2019-06-10T11:24:01.279Z,63.86
2019-06-10T11:26:27.556Z,64.12
2019-06-10T11:28:58.061Z,64.15
2019-06-10T11:31:28.364Z,63.78
2019-06-10T11:33:59.178Z,63.99
2019-06-10T11:36:29.154Z,64.39
2019-06-10T11:38:59.550Z,64.78
2019-06-10T11:41:29.640Z,64.84
2019-06-10T11:43:59.463Z,65.45
2019-06-10T11:46:29.491Z,66.21
2019-06-10T11:48:59.602Z,66.41
2019-06-10T11:51:29.763Z,66.96
2019-06-10T11:53:59.718Z,67.07
2019-06-10T11:56:33.022Z,67.44
2019-06-10T11:59:07.952Z,67.42
2019-06-10T12:01:31.612Z,68.55
2019-06-10T12:04:04.069Z,69.70
2019-06-10T12:06:33.964Z,70.76
2019-06-10T12:09:03.392Z,70.72
2019-06-10T12:11:34.319Z,71.05
2019-06-10T12:14:04.568Z,71.17
2019-06-10T12:19:05.446Z,71.60
2019-06-10T12:21:35.199Z,71.98
2019-06-10T12:24:05.488Z,72.61
2019-06-10T12:26:35.357Z,72.96
2019-06-10T12:29:06.009Z,73.27
2019-06-10T12:31:36.046Z,73.60
2019-06-10T12:34:06.031Z,73.98
2019-06-10T12:36:35.915Z,74.08
2019-06-10T12:39:10.620Z,74.19
2019-06-10T12:44:12.081Z,75.04
2019-06-10T12:46:43.095Z,75.55
2019-06-10T12:49:14.212Z,75.50
2019-06-10T12:51:46.044Z,75.80
2019-06-10T12:54:15.950Z,76.32
2019-06-10T12:56:46.432Z,76.87
2019-06-10T12:59:17.148Z,77.08
2019-06-10T13:01:47.348Z,77.58
2019-06-10T13:04:17.951Z,77.51
2019-06-10T13:06:48.048Z,77.64
2019-06-10T13:09:18.415Z,78.00
2019-06-10T13:11:49.368Z,78.29
2019-06-10T13:14:21.943Z,78.71
2019-06-10T13:16:52.482Z,78.93
2019-06-10T13:19:23.114Z,79.19
2019-06-10T13:21:52.924Z,79.41
2019-06-10T13:24:22.454Z,79.75
2019-06-10T13:26:53.502Z,79.90
2019-06-10T13:29:25.031Z,80.53
2019-06-10T13:31:54.391Z,80.79
2019-06-10T13:34:24.040Z,80.78
2019-06-10T13:36:53.958Z,80.75
2019-06-10T13:39:26.934Z,81.30
2019-06-10T13:41:57.535Z,81.26
2019-06-10T13:44:26.508Z,81.18
2019-06-10T13:46:59.534Z,82.03
2019-06-10T13:49:29.189Z,81.92
2019-06-10T13:51:59.429Z,82.34
2019-06-10T13:54:29.118Z,82.61
2019-06-10T13:56:59.254Z,82.36
2019-06-10T13:59:28.990Z,82.65
2019-06-10T14:04:44.040Z,82.71
2019-06-10T14:07:24.781Z,82.92
2019-06-10T14:09:56.274Z,83.22
2019-06-10T14:12:26.457Z,83.81
2019-06-10T14:14:55.988Z,84.41
2019-06-10T14:17:25.260Z,83.73
2019-06-10T14:19:53.955Z,84.30
2019-06-10T14:22:24.048Z,83.73
2019-06-10T14:24:53.899Z,84.43
2019-06-10T14:27:24.763Z,84.76
2019-06-10T14:29:52.918Z,84.95
2019-06-10T14:32:22.794Z,85.02
2019-06-10T14:34:52.636Z,84.82
2019-06-10T14:37:34.908Z,84.65
2019-06-10T14:39:52.896Z,85.18
2019-06-10T14:42:23.037Z,85.25
2019-06-10T14:44:53.163Z,85.54
2019-06-10T14:47:23.160Z,86.04
2019-06-10T14:49:53.087Z,85.44
2019-06-10T14:52:22.720Z,86.23
2019-06-10T14:54:53.198Z,86.24
2019-06-10T14:57:22.915Z,86.52
2019-06-10T14:59:53.634Z,86.21
2019-06-10T15:02:23.788Z,86.23
2019-06-10T15:04:53.544Z,86.53
2019-06-10T15:07:23.807Z,87.11
2019-06-10T15:09:53.319Z,87.13
2019-06-10T15:12:23.021Z,87.56
2019-06-10T15:14:53.789Z,87.44
2019-06-10T15:17:23.193Z,87.37
2019-06-10T15:19:53.076Z,87.21
2019-06-10T15:22:23.861Z,86.91
2019-06-10T15:24:53.949Z,87.40
2019-06-10T15:27:29.914Z,87.31
2019-06-10T15:29:53.632Z,87.44
2019-06-10T15:32:33.723Z,87.16
2019-06-10T15:34:55.392Z,87.51
2019-06-10T15:37:28.824Z,87.62
2019-06-10T15:39:57.158Z,87.73
2019-06-10T15:42:26.910Z,88.32
2019-06-10T15:44:57.193Z,87.85
2019-06-10T15:47:27.385Z,88.14
2019-06-10T15:49:57.788Z,87.66
2019-06-10T15:52:27.628Z,87.84
2019-06-10T15:54:58.408Z,88.34
2019-06-10T15:57:39.319Z,88.48
2019-06-10T15:59:58.832Z,88.59
2019-06-10T16:02:28.840Z,88.76
2019-06-10T16:04:58.921Z,88.88
2019-06-10T16:07:29.005Z,88.88
2019-06-10T16:10:02.700Z,88.93
2019-06-10T16:12:32.904Z,88.96
2019-06-10T16:15:02.656Z,89.09
2019-06-10T16:17:33.185Z,89.21
2019-06-10T16:20:03.626Z,89.13
2019-06-10T16:22:31.607Z,89.07
2019-06-10T16:25:03.467Z,89.53
2019-06-10T16:27:46.290Z,89.67
2019-06-10T16:30:03.797Z,89.73
2019-06-10T16:32:33.628Z,89.74
2019-06-10T16:35:04.024Z,90.27
2019-06-10T16:37:33.877Z,89.75
2019-06-10T16:40:03.490Z,90.37
2019-06-10T16:42:33.332Z,90.18
2019-06-10T16:45:03.397Z,90.08
2019-06-10T16:47:32.825Z,89.95
2019-06-10T16:50:03.709Z,90.19
2019-06-10T16:52:34.252Z,90.77
2019-06-10T16:55:03.003Z,90.48
2019-06-10T16:57:33.442Z,90.46
2019-06-10T17:00:10.907Z,90.44
2019-06-10T17:02:33.370Z,90.52
2019-06-10T17:05:03.293Z,90.71
2019-06-10T17:07:32.995Z,90.66
2019-06-10T17:10:02.597Z,90.93
2019-06-10T17:12:33.129Z,90.72
2019-06-10T17:15:03.581Z,89.77
2019-06-10T17:17:34.109Z,90.19
2019-06-10T17:20:04.846Z,90.12
2019-06-10T17:22:35.550Z,91.00
2019-06-10T17:25:06.277Z,90.77
2019-06-10T17:27:36.851Z,90.27
2019-06-10T17:30:06.496Z,90.50
2019-06-10T17:32:36.844Z,90.64
2019-06-10T17:35:09.491Z,90.19
2019-06-10T17:37:39.039Z,90.08
2019-06-10T17:40:08.743Z,90.15
2019-06-10T17:42:38.747Z,90.42
2019-06-10T17:45:08.304Z,90.81
2019-06-10T17:47:38.593Z,90.74
2019-06-10T17:50:08.727Z,90.48
2019-06-10T17:52:38.986Z,91.12
2019-06-10T17:55:12.559Z,90.64
2019-06-10T17:57:42.992Z,90.83
2019-06-10T18:00:14.900Z,91.19
2019-06-10T18:02:53.531Z,91.32
2019-06-10T18:05:22.517Z,90.97
2019-06-10T18:07:52.689Z,91.66
2019-06-10T18:10:23.992Z,91.08
2019-06-10T18:12:52.943Z,91.17
2019-06-10T18:15:24.043Z,91.86
2019-06-10T18:17:55.876Z,91.83
2019-06-10T18:20:24.413Z,91.64
2019-06-10T18:22:54.104Z,91.55
2019-06-10T18:25:24.581Z,91.10
2019-06-10T18:27:54.912Z,91.55
2019-06-10T18:30:25.117Z,91.98
2019-06-10T18:32:55.075Z,92.39
2019-06-10T18:35:25.842Z,91.78
2019-06-10T18:37:55.234Z,91.80
2019-06-10T18:40:25.315Z,91.47
2019-06-10T18:42:55.674Z,91.54
2019-06-10T18:45:26.016Z,93.86
2019-06-10T18:47:55.622Z,94.46
2019-06-10T18:50:26.068Z,94.41
2019-06-10T18:52:57.362Z,94.03
2019-06-10T18:55:26.254Z,94.35
2019-06-10T18:57:56.848Z,94.13
2019-06-10T19:00:39.912Z,94.27
2019-06-10T19:03:09.236Z,94.75
2019-06-10T19:05:28.519Z,94.67
2019-06-10T19:07:58.706Z,94.69
2019-06-10T19:10:29.464Z,94.33
2019-06-10T19:12:59.560Z,94.51
2019-06-10T19:15:31.857Z,94.86
2019-06-10T19:18:03.187Z,94.38
2019-06-10T19:20:36.443Z,94.56
2019-06-10T19:23:04.242Z,94.36
2019-06-10T19:25:37.255Z,94.58
2019-06-10T19:28:05.268Z,94.54
2019-06-10T19:30:37.704Z,94.75
2019-06-10T19:33:05.589Z,94.53
2019-06-10T19:35:36.666Z,94.44
2019-06-10T19:38:05.784Z,94.67
2019-06-10T19:40:37.168Z,94.79
2019-06-10T19:43:06.907Z,94.96
2019-06-10T19:45:36.693Z,94.60
2019-06-10T19:48:06.750Z,94.41
2019-06-10T19:50:37.582Z,94.32
2019-06-10T19:53:07.798Z,94.65
2019-06-10T19:55:38.958Z,95.14
2019-06-10T19:58:10.553Z,95.19
2019-06-10T20:00:41.502Z,94.75
2019-06-10T20:03:12.051Z,94.56
2019-06-10T20:05:44.878Z,95.00
2019-06-10T20:08:12.828Z,94.98
2019-06-10T20:10:42.660Z,95.33
2019-06-10T20:13:12.673Z,95.30
2019-06-10T20:15:45.016Z,95.09
2019-06-10T20:18:13.786Z,95.19
2019-06-10T20:20:45.870Z,95.49
2019-06-10T20:23:14.932Z,95.52
2019-06-10T20:25:46.841Z,95.12
2019-06-10T20:28:16.024Z,94.98
2019-06-10T20:30:47.786Z,95.32
2019-06-10T20:33:16.908Z,94.83
2019-06-10T20:35:47.245Z,95.11
2019-06-10T20:38:17.232Z,94.94
2019-06-10T20:40:48.714Z,94.90
2019-06-10T20:43:19.586Z,95.20
2019-06-10T20:45:50.121Z,95.32
2019-06-10T20:48:22.461Z,95.21
2019-06-10T20:50:53.188Z,95.26
2019-06-10T20:53:21.315Z,95.02
2019-06-10T20:55:54.997Z,95.22
2019-06-10T20:58:22.494Z,95.39
2019-06-10T21:00:53.952Z,95.78
2019-06-10T21:03:23.159Z,95.89
2019-06-10T21:05:53.497Z,95.26
2019-06-10T21:08:23.124Z,95.04
2019-06-10T21:10:54.555Z,95.35
2019-06-10T21:13:24.494Z,94.94
2019-06-10T21:15:55.591Z,95.00
2019-06-10T21:18:24.687Z,94.81
2019-06-10T21:20:56.280Z,95.09
2019-06-10T21:23:26.752Z,95.36
2019-06-10T21:25:56.385Z,95.57
2019-06-10T21:28:27.214Z,95.40
2019-06-10T21:30:58.842Z,95.35
2019-06-10T21:33:28.096Z,95.31
2019-06-10T21:35:58.113Z,95.74
2019-06-10T21:38:27.863Z,95.65
2019-06-10T21:40:58.331Z,95.66
2019-06-10T21:43:27.544Z,96.13
2019-06-10T21:45:57.883Z,96.22
2019-06-10T21:48:27.865Z,96.03
2019-06-10T21:50:57.418Z,95.29
2019-06-10T21:53:26.882Z,95.26
2019-06-10T21:55:56.508Z,95.39
2019-06-10T21:58:26.509Z,95.85
2019-06-10T22:01:10.846Z,95.44
2019-06-10T22:03:26.801Z,95.46
2019-06-10T22:05:56.830Z,95.55
2019-06-10T22:08:26.913Z,95.68
2019-06-10T22:10:56.759Z,95.39
2019-06-10T22:13:26.753Z,94.93
2019-06-10T22:15:57.166Z,94.94
2019-06-10T22:18:26.909Z,95.42
2019-06-10T22:20:57.945Z,95.26
2019-06-10T22:23:28.648Z,95.04
2019-06-10T22:25:58.745Z,95.55
2019-06-10T22:28:29.054Z,95.67
2019-06-10T22:31:15.157Z,95.71
2019-06-10T22:33:29.626Z,96.11
2019-06-10T22:35:59.456Z,95.20
2019-06-10T22:38:29.469Z,95.26
2019-06-10T22:40:59.314Z,95.15
2019-06-10T22:43:29.090Z,95.39
2019-06-10T22:45:59.878Z,94.87
2019-06-10T22:48:28.705Z,94.74
2019-06-10T22:50:59.551Z,94.62
2019-06-10T22:53:28.972Z,95.16
2019-06-10T22:55:59.243Z,95.70
2019-06-10T22:58:28.112Z,96.04
2019-06-10T23:00:57.893Z,95.76
2019-06-10T23:03:27.161Z,95.86
2019-06-10T23:05:56.849Z,95.90
2019-06-10T23:08:26.266Z,96.05
2019-06-10T23:10:58.107Z,95.90
2019-06-10T23:13:28.677Z,95.60
2019-06-10T23:15:58.660Z,96.17
2019-06-10T23:18:28.461Z,95.77
2019-06-10T23:20:59.711Z,95.91
2019-06-10T23:23:28.237Z,96.24
2019-06-10T23:25:58.178Z,96.71
2019-06-10T23:28:28.513Z,96.67
2019-06-10T23:31:00.215Z,96.77
2019-06-10T23:33:29.308Z,96.83
2019-06-10T23:36:01.399Z,97.29
2019-06-10T23:38:32.964Z,97.39
2019-06-10T23:41:03.770Z,97.03
2019-06-10T23:43:33.013Z,97.36
2019-06-10T23:46:04.414Z,97.66
2019-06-10T23:48:33.365Z,98.02
2019-06-10T23:51:04.911Z,97.53
2019-06-10T23:53:33.503Z,97.61
2019-06-10T23:56:04.869Z,97.67
2019-06-10T23:58:33.956Z,97.31
